sensor_id;sensor_type;location;lat;lon;timestamp;pressure;altitude;pressure_sealevel;temperature;humidity
54876;BME280;40764;48.472;8.166;2022-11-15T00:01:59;97969.50;;;8.02;100.00
54876;BME280;40764;48.472;8.166;2022-11-15T00:07:59;97979.63;;;7.97;100.00
54876;BME280;40764;48.472;8.166;2022-11-15T00:14:00;97964.00;;;8.07;100.00
54876;BME280;40764;48.472;8.166;2022-11-15T00:20:02;97964.47;;;8.20;100.00
54876;BME280;40764;48.472;8.166;2022-11-15T00:26:03;97954.59;;;8.29;100.00
54876;BME280;40764;48.472;8.166;2022-11-15T00:32:04;97949.44;;;8.27;100.00
54876;BME280;40764;48.472;8.166;2022-11-15T00:38:05;97940.13;;;8.33;100.00
54876;BME280;40764;48.472;8.166;2022-11-15T00:44:05;97936.44;;;8.19;100.00
54876;BME280;40764;48.472;8.166;2022-11-15T00:50:06;97928.97;;;8.30;100.00
54876;BME280;40764;48.472;8.166;2022-11-15T00:56:06;97927.59;;;8.32;100.00
54876;BME280;40764;48.472;8.166;2022-11-15T01:02:07;97921.88;;;8.34;100.00
54876;BME280;40764;48.472;8.166;2022-11-15T01:08:12;97911.69;;;8.16;100.00
54876;BME280;40764;48.472;8.166;2022-11-15T01:14:13;97906.31;;;8.05;100.00
54876;BME280;40764;48.472;8.166;2022-11-15T01:20:14;97897.75;;;8.22;100.00
54876;BME280;40764;48.472;8.166;2022-11-15T01:26:15;97887.81;;;8.36;100.00
54876;BME280;40764;48.472;8.166;2022-11-15T01:32:15;97890.63;;;8.55;100.00
54876;BME280;40764;48.472;8.166;2022-11-15T01:38:16;97874.13;;;8.65;100.00
54876;BME280;40764;48.472;8.166;2022-11-15T01:44:39;97876.47;;;8.53;100.00
54876;BME280;40764;48.472;8.166;2022-11-15T01:50:40;97866.56;;;8.38;100.00
54876;BME280;40764;48.472;8.166;2022-11-15T01:56:55;97857.56;;;8.38;100.00
54876;BME280;40764;48.472;8.166;2022-11-15T02:02:59;97847.91;;;8.51;100.00
54876;BME280;40764;48.472;8.166;2022-11-15T02:09:00;97841.44;;;8.65;100.00
54876;BME280;40764;48.472;8.166;2022-11-15T02:15:00;97835.31;;;8.55;100.00
54876;BME280;40764;48.472;8.166;2022-11-15T02:21:05;97830.44;;;8.52;100.00
54876;BME280;40764;48.472;8.166;2022-11-15T02:40:15;97815.22;;;8.51;100.00
54876;BME280;40764;48.472;8.166;2022-11-15T02:46:39;97801.84;;;8.73;100.00
54876;BME280;40764;48.472;8.166;2022-11-15T02:52:59;97807.63;;;8.66;100.00
54876;BME280;40764;48.472;8.166;2022-11-15T02:59:20;97788.53;;;8.72;100.00
54876;BME280;40764;48.472;8.166;2022-11-15T03:11:24;97795.06;;;8.71;100.00
54876;BME280;40764;48.472;8.166;2022-11-15T03:17:36;97787.91;;;8.56;100.00
54876;BME280;40764;48.472;8.166;2022-11-15T03:23:39;97787.25;;;8.64;100.00
54876;BME280;40764;48.472;8.166;2022-11-15T03:29:43;97782.44;;;8.98;100.00
54876;BME280;40764;48.472;8.166;2022-11-15T03:35:45;97777.69;;;8.85;100.00
54876;BME280;40764;48.472;8.166;2022-11-15T03:48:24;97778.06;;;9.16;100.00
54876;BME280;40764;48.472;8.166;2022-11-15T03:54:25;97784.91;;;8.95;100.00
54876;BME280;40764;48.472;8.166;2022-11-15T04:00:25;97774.13;;;9.22;100.00
54876;BME280;40764;48.472;8.166;2022-11-15T04:06:26;97779.59;;;9.22;100.00
54876;BME280;40764;48.472;8.166;2022-11-15T04:12:26;97788.56;;;9.42;100.00
54876;BME280;40764;48.472;8.166;2022-11-15T04:18:33;97772.28;;;9.37;100.00
54876;BME280;40764;48.472;8.166;2022-11-15T04:24:33;97766.50;;;9.57;100.00
54876;BME280;40764;48.472;8.166;2022-11-15T04:30:33;97766.22;;;9.72;100.00
54876;BME280;40764;48.472;8.166;2022-11-15T04:36:34;97756.16;;;9.86;100.00
54876;BME280;40764;48.472;8.166;2022-11-15T04:42:53;97754.63;;;9.94;100.00
54876;BME280;40764;48.472;8.166;2022-11-15T04:48:53;97750.06;;;9.76;100.00
54876;BME280;40764;48.472;8.166;2022-11-15T04:54:54;97748.44;;;9.75;100.00
54876;BME280;40764;48.472;8.166;2022-11-15T05:00:54;97747.06;;;9.91;100.00
54876;BME280;40764;48.472;8.166;2022-11-15T05:06:55;97744.13;;;10.01;100.00
54876;BME280;40764;48.472;8.166;2022-11-15T05:12:55;97735.72;;;10.11;100.00
54876;BME280;40764;48.472;8.166;2022-11-15T05:18:55;97726.81;;;10.06;100.00
54876;BME280;40764;48.472;8.166;2022-11-15T05:24:55;97728.88;;;10.14;100.00
54876;BME280;40764;48.472;8.166;2022-11-15T05:31:03;97726.03;;;10.19;100.00
54876;BME280;40764;48.472;8.166;2022-11-15T05:37:03;97725.03;;;10.15;100.00
54876;BME280;40764;48.472;8.166;2022-11-15T05:43:04;97715.41;;;10.04;100.00
54876;BME280;40764;48.472;8.166;2022-11-15T05:49:07;97714.41;;;9.86;100.00
54876;BME280;40764;48.472;8.166;2022-11-15T05:55:09;97713.78;;;9.89;100.00
54876;BME280;40764;48.472;8.166;2022-11-15T06:01:10;97708.63;;;9.87;100.00
54876;BME280;40764;48.472;8.166;2022-11-15T06:07:10;97711.88;;;9.89;100.00
54876;BME280;40764;48.472;8.166;2022-11-15T06:13:11;97712.16;;;10.02;100.00
54876;BME280;40764;48.472;8.166;2022-11-15T06:19:11;97710.53;;;10.01;100.00
54876;BME280;40764;48.472;8.166;2022-11-15T06:25:11;97706.78;;;9.83;100.00
54876;BME280;40764;48.472;8.166;2022-11-15T06:31:12;97706.09;;;9.91;100.00
54876;BME280;40764;48.472;8.166;2022-11-15T06:37:12;97703.78;;;9.98;100.00
54876;BME280;40764;48.472;8.166;2022-11-15T06:43:13;97702.03;;;10.02;100.00
54876;BME280;40764;48.472;8.166;2022-11-15T06:49:14;97709.53;;;9.97;100.00
54876;BME280;40764;48.472;8.166;2022-11-15T06:55:15;97718.34;;;9.93;100.00
54876;BME280;40764;48.472;8.166;2022-11-15T07:01:15;97708.53;;;9.92;100.00
54876;BME280;40764;48.472;8.166;2022-11-15T07:07:15;97700.75;;;9.86;100.00
54876;BME280;40764;48.472;8.166;2022-11-15T07:13:16;97692.44;;;9.91;100.00
54876;BME280;40764;48.472;8.166;2022-11-15T07:19:16;97711.34;;;9.87;100.00
54876;BME280;40764;48.472;8.166;2022-11-15T07:25:16;97714.78;;;10.07;100.00
54876;BME280;40764;48.472;8.166;2022-11-15T07:31:17;97707.22;;;10.17;100.00
54876;BME280;40764;48.472;8.166;2022-11-15T07:37:17;97715.31;;;10.22;100.00
54876;BME280;40764;48.472;8.166;2022-11-15T07:43:17;97706.59;;;10.07;100.00
54876;BME280;40764;48.472;8.166;2022-11-15T07:49:18;97726.56;;;10.21;100.00
54876;BME280;40764;48.472;8.166;2022-11-15T07:55:18;97714.69;;;10.39;100.00
54876;BME280;40764;48.472;8.166;2022-11-15T08:01:19;97702.16;;;10.38;100.00
54876;BME280;40764;48.472;8.166;2022-11-15T08:07:19;97700.66;;;10.68;100.00
54876;BME280;40764;48.472;8.166;2022-11-15T08:13:19;97709.91;;;10.95;100.00
54876;BME280;40764;48.472;8.166;2022-11-15T08:19:20;97704.72;;;11.07;100.00
54876;BME280;40764;48.472;8.166;2022-11-15T08:25:20;97697.84;;;10.96;100.00
54876;BME280;40764;48.472;8.166;2022-11-15T08:31:20;97696.81;;;11.28;100.00
54876;BME280;40764;48.472;8.166;2022-11-15T08:37:21;97691.84;;;11.30;100.00
54876;BME280;40764;48.472;8.166;2022-11-15T08:43:21;97689.03;;;11.21;100.00
54876;BME280;40764;48.472;8.166;2022-11-15T08:49:21;97677.59;;;11.19;100.00
54876;BME280;40764;48.472;8.166;2022-11-15T08:55:22;97677.22;;;11.34;100.00
54876;BME280;40764;48.472;8.166;2022-11-15T09:01:22;97678.38;;;11.42;100.00
54876;BME280;40764;48.472;8.166;2022-11-15T09:07:22;97679.50;;;11.18;100.00
54876;BME280;40764;48.472;8.166;2022-11-15T09:13:24;97683.75;;;11.25;100.00
54876;BME280;40764;48.472;8.166;2022-11-15T09:19:24;97677.25;;;11.43;100.00
54876;BME280;40764;48.472;8.166;2022-11-15T09:25:24;97674.41;;;11.79;100.00
54876;BME280;40764;48.472;8.166;2022-11-15T09:31:25;97689.16;;;11.69;100.00
54876;BME280;40764;48.472;8.166;2022-11-15T09:37:25;97677.19;;;11.57;100.00
54876;BME280;40764;48.472;8.166;2022-11-15T09:43:35;97670.16;;;11.73;100.00
54876;BME280;40764;48.472;8.166;2022-11-15T09:49:41;97672.56;;;11.97;100.00
54876;BME280;40764;48.472;8.166;2022-11-15T09:56:03;97669.56;;;12.24;100.00
54876;BME280;40764;48.472;8.166;2022-11-15T10:14:22;97672.97;;;12.21;100.00
54876;BME280;40764;48.472;8.166;2022-11-15T10:20:26;97666.63;;;12.03;100.00
54876;BME280;40764;48.472;8.166;2022-11-15T10:26:27;97654.75;;;12.25;100.00
54876;BME280;40764;48.472;8.166;2022-11-15T10:32:28;97642.06;;;12.55;100.00
54876;BME280;40764;48.472;8.166;2022-11-15T10:38:29;97626.09;;;12.75;100.00
54876;BME280;40764;48.472;8.166;2022-11-15T10:44:31;97624.78;;;12.89;100.00
54876;BME280;40764;48.472;8.166;2022-11-15T10:50:32;97601.06;;;13.02;100.00
54876;BME280;40764;48.472;8.166;2022-11-15T10:56:33;97593.97;;;12.92;100.00
54876;BME280;40764;48.472;8.166;2022-11-15T11:02:47;97581.53;;;12.95;100.00
54876;BME280;40764;48.472;8.166;2022-11-15T11:09:04;97574.22;;;13.16;100.00
54876;BME280;40764;48.472;8.166;2022-11-15T11:15:11;97557.28;;;13.23;100.00
54876;BME280;40764;48.472;8.166;2022-11-15T11:21:15;97551.00;;;13.22;100.00
54876;BME280;40764;48.472;8.166;2022-11-15T11:28:05;97543.09;;;13.12;100.00
54876;BME280;40764;48.472;8.166;2022-11-15T11:34:07;97533.38;;;13.32;100.00
54876;BME280;40764;48.472;8.166;2022-11-15T11:46:43;97539.00;;;13.74;100.00
54876;BME280;40764;48.472;8.166;2022-11-15T11:53:30;97536.16;;;13.61;100.00
54876;BME280;40764;48.472;8.166;2022-11-15T11:59:43;97526.78;;;13.62;100.00
54876;BME280;40764;48.472;8.166;2022-11-15T12:05:51;97520.16;;;13.84;100.00
54876;BME280;40764;48.472;8.166;2022-11-15T12:12:10;97513.03;;;13.92;100.00
54876;BME280;40764;48.472;8.166;2022-11-15T12:18:15;97506.19;;;13.98;100.00
54876;BME280;40764;48.472;8.166;2022-11-15T12:30:19;97467.44;;;14.12;100.00
54876;BME280;40764;48.472;8.166;2022-11-15T13:06:40;97393.94;;;14.09;100.00
54876;BME280;40764;48.472;8.166;2022-11-15T13:18:53;97361.84;;;14.01;100.00
54876;BME280;40764;48.472;8.166;2022-11-15T13:24:54;97367.34;;;14.34;100.00
54876;BME280;40764;48.472;8.166;2022-11-15T13:31:00;97354.56;;;14.50;100.00
54876;BME280;40764;48.472;8.166;2022-11-15T13:37:02;97352.31;;;14.31;100.00
54876;BME280;40764;48.472;8.166;2022-11-15T13:49:29;97341.59;;;14.05;100.00
54876;BME280;40764;48.472;8.166;2022-11-15T13:55:31;97336.06;;;13.93;100.00
54876;BME280;40764;48.472;8.166;2022-11-15T14:01:35;97334.00;;;13.69;100.00
54876;BME280;40764;48.472;8.166;2022-11-15T14:07:36;97341.56;;;13.72;100.00
54876;BME280;40764;48.472;8.166;2022-11-15T14:13:36;97335.69;;;13.61;100.00
54876;BME280;40764;48.472;8.166;2022-11-15T14:19:38;97314.59;;;13.32;100.00
54876;BME280;40764;48.472;8.166;2022-11-15T14:25:39;97312.75;;;13.16;100.00
54876;BME280;40764;48.472;8.166;2022-11-15T14:31:39;97299.28;;;13.02;100.00
54876;BME280;40764;48.472;8.166;2022-11-15T14:37:40;97289.84;;;12.91;100.00
54876;BME280;40764;48.472;8.166;2022-11-15T14:43:41;97288.47;;;13.06;100.00
54876;BME280;40764;48.472;8.166;2022-11-15T14:49:41;97279.13;;;12.77;100.00
54876;BME280;40764;48.472;8.166;2022-11-15T14:55:42;97255.19;;;12.86;100.00
54876;BME280;40764;48.472;8.166;2022-11-15T15:01:42;97243.94;;;12.50;100.00
54876;BME280;40764;48.472;8.166;2022-11-15T15:07:43;97248.97;;;12.48;100.00
54876;BME280;40764;48.472;8.166;2022-11-15T15:13:43;97246.56;;;12.46;100.00
54876;BME280;40764;48.472;8.166;2022-11-15T15:19:44;97235.09;;;12.15;100.00
54876;BME280;40764;48.472;8.166;2022-11-15T15:25:45;97224.94;;;12.06;100.00
54876;BME280;40764;48.472;8.166;2022-11-15T15:31:46;97219.81;;;12.05;100.00
54876;BME280;40764;48.472;8.166;2022-11-15T15:37:48;97204.75;;;11.82;100.00
54876;BME280;40764;48.472;8.166;2022-11-15T15:43:48;97208.44;;;11.77;100.00
54876;BME280;40764;48.472;8.166;2022-11-15T15:49:49;97200.16;;;12.03;100.00
54876;BME280;40764;48.472;8.166;2022-11-15T15:55:50;97195.84;;;11.93;100.00
54876;BME280;40764;48.472;8.166;2022-11-15T16:01:51;97185.88;;;11.89;100.00
54876;BME280;40764;48.472;8.166;2022-11-15T16:07:54;97184.59;;;11.77;100.00
54876;BME280;40764;48.472;8.166;2022-11-15T16:14:02;97177.72;;;11.54;100.00
54876;BME280;40764;48.472;8.166;2022-11-15T16:20:02;97177.25;;;11.52;100.00
54876;BME280;40764;48.472;8.166;2022-11-15T16:26:16;97169.56;;;11.45;100.00
54876;BME280;40764;48.472;8.166;2022-11-15T16:32:18;97171.13;;;11.64;100.00
54876;BME280;40764;48.472;8.166;2022-11-15T16:38:18;97157.28;;;11.52;100.00
54876;BME280;40764;48.472;8.166;2022-11-15T16:44:19;97161.97;;;11.51;100.00
54876;BME280;40764;48.472;8.166;2022-11-15T16:50:22;97159.06;;;11.56;100.00
54876;BME280;40764;48.472;8.166;2022-11-15T16:56:27;97150.22;;;11.51;100.00
54876;BME280;40764;48.472;8.166;2022-11-15T17:02:28;97143.84;;;11.29;100.00
54876;BME280;40764;48.472;8.166;2022-11-15T17:08:28;97137.75;;;11.15;100.00
54876;BME280;40764;48.472;8.166;2022-11-15T17:14:29;97130.31;;;11.33;100.00
54876;BME280;40764;48.472;8.166;2022-11-15T17:20:31;97125.19;;;11.23;100.00
54876;BME280;40764;48.472;8.166;2022-11-15T17:26:31;97132.59;;;11.22;100.00
54876;BME280;40764;48.472;8.166;2022-11-15T17:32:34;97131.94;;;11.25;100.00
54876;BME280;40764;48.472;8.166;2022-11-15T17:38:35;97123.91;;;11.20;100.00
54876;BME280;40764;48.472;8.166;2022-11-15T17:44:35;97120.22;;;11.16;100.00
54876;BME280;40764;48.472;8.166;2022-11-15T17:50:36;97121.66;;;11.13;100.00
54876;BME280;40764;48.472;8.166;2022-11-15T17:56:38;97115.69;;;11.20;100.00
54876;BME280;40764;48.472;8.166;2022-11-15T18:02:39;97108.13;;;11.17;100.00
54876;BME280;40764;48.472;8.166;2022-11-15T18:08:41;97107.53;;;11.03;100.00
54876;BME280;40764;48.472;8.166;2022-11-15T18:14:41;97097.09;;;11.05;100.00
54876;BME280;40764;48.472;8.166;2022-11-15T18:20:41;97084.50;;;11.12;100.00
54876;BME280;40764;48.472;8.166;2022-11-15T18:26:42;97079.50;;;11.14;100.00
54876;BME280;40764;48.472;8.166;2022-11-15T18:32:42;97087.56;;;11.11;100.00
54876;BME280;40764;48.472;8.166;2022-11-15T18:38:43;97081.47;;;11.05;100.00
54876;BME280;40764;48.472;8.166;2022-11-15T18:44:43;97071.03;;;10.99;100.00
54876;BME280;40764;48.472;8.166;2022-11-15T18:50:43;97072.16;;;10.89;100.00
54876;BME280;40764;48.472;8.166;2022-11-15T18:56:44;97064.28;;;10.88;100.00
54876;BME280;40764;48.472;8.166;2022-11-15T19:02:44;97059.91;;;10.95;100.00
54876;BME280;40764;48.472;8.166;2022-11-15T19:08:47;97053.50;;;11.00;100.00
54876;BME280;40764;48.472;8.166;2022-11-15T19:14:47;97050.91;;;11.03;100.00
54876;BME280;40764;48.472;8.166;2022-11-15T19:20:48;97042.28;;;10.75;100.00
54876;BME280;40764;48.472;8.166;2022-11-15T19:26:49;97044.22;;;10.75;100.00
54876;BME280;40764;48.472;8.166;2022-11-15T19:32:52;97034.28;;;10.70;100.00
54876;BME280;40764;48.472;8.166;2022-11-15T19:38:53;97015.44;;;10.60;100.00
54876;BME280;40764;48.472;8.166;2022-11-15T19:44:54;97012.91;;;10.55;100.00
54876;BME280;40764;48.472;8.166;2022-11-15T19:51:02;97009.81;;;10.65;100.00
54876;BME280;40764;48.472;8.166;2022-11-15T19:57:03;96993.88;;;10.84;100.00
54876;BME280;40764;48.472;8.166;2022-11-15T20:03:04;97013.25;;;11.09;100.00
54876;BME280;40764;48.472;8.166;2022-11-15T20:09:04;97014.72;;;10.98;100.00
54876;BME280;40764;48.472;8.166;2022-11-15T20:15:05;97018.00;;;10.82;100.00
54876;BME280;40764;48.472;8.166;2022-11-15T20:21:05;97008.56;;;10.54;100.00
54876;BME280;40764;48.472;8.166;2022-11-15T20:27:07;97012.69;;;10.77;100.00
54876;BME280;40764;48.472;8.166;2022-11-15T20:33:07;97010.44;;;10.79;100.00
54876;BME280;40764;48.472;8.166;2022-11-15T20:39:08;97010.16;;;10.72;100.00
54876;BME280;40764;48.472;8.166;2022-11-15T20:45:09;97011.41;;;10.66;100.00
54876;BME280;40764;48.472;8.166;2022-11-15T20:51:14;97002.13;;;10.59;100.00
54876;BME280;40764;48.472;8.166;2022-11-15T20:57:15;96994.56;;;10.55;100.00
54876;BME280;40764;48.472;8.166;2022-11-15T21:03:15;96988.44;;;10.76;100.00
54876;BME280;40764;48.472;8.166;2022-11-15T21:09:15;96991.44;;;10.92;100.00
54876;BME280;40764;48.472;8.166;2022-11-15T21:15:34;96979.69;;;10.91;100.00
54876;BME280;40764;48.472;8.166;2022-11-15T21:21:35;96973.69;;;10.51;100.00
54876;BME280;40764;48.472;8.166;2022-11-15T21:27:37;96969.34;;;10.50;100.00
54876;BME280;40764;48.472;8.166;2022-11-15T21:33:37;96972.69;;;10.73;100.00
54876;BME280;40764;48.472;8.166;2022-11-15T21:39:38;96967.72;;;10.58;100.00
54876;BME280;40764;48.472;8.166;2022-11-15T21:45:38;96963.41;;;10.39;100.00
54876;BME280;40764;48.472;8.166;2022-11-15T21:51:38;96964.72;;;10.42;100.00
54876;BME280;40764;48.472;8.166;2022-11-15T21:57:39;96974.34;;;10.48;100.00
54876;BME280;40764;48.472;8.166;2022-11-15T22:03:39;96963.25;;;10.36;100.00
54876;BME280;40764;48.472;8.166;2022-11-15T22:09:40;96958.06;;;10.60;100.00
54876;BME280;40764;48.472;8.166;2022-11-15T22:15:42;96958.25;;;10.55;100.00
54876;BME280;40764;48.472;8.166;2022-11-15T22:21:43;96947.66;;;10.36;100.00
54876;BME280;40764;48.472;8.166;2022-11-15T22:27:43;96946.72;;;10.41;100.00
54876;BME280;40764;48.472;8.166;2022-11-15T22:33:44;96936.75;;;10.45;100.00
54876;BME280;40764;48.472;8.166;2022-11-15T22:39:44;96927.63;;;10.79;100.00
54876;BME280;40764;48.472;8.166;2022-11-15T22:51:53;96914.75;;;10.41;100.00
54876;BME280;40764;48.472;8.166;2022-11-15T22:57:53;96917.69;;;10.66;100.00
54876;BME280;40764;48.472;8.166;2022-11-15T23:03:53;96913.41;;;10.56;100.00
54876;BME280;40764;48.472;8.166;2022-11-15T23:09:54;96916.59;;;10.58;100.00
54876;BME280;40764;48.472;8.166;2022-11-15T23:16:14;96903.78;;;10.50;100.00
54876;BME280;40764;48.472;8.166;2022-11-15T23:22:34;96892.19;;;10.53;100.00
54876;BME280;40764;48.472;8.166;2022-11-15T23:28:46;96887.53;;;10.53;100.00
54876;BME280;40764;48.472;8.166;2022-11-15T23:34:47;96884.31;;;10.51;100.00
54876;BME280;40764;48.472;8.166;2022-11-15T23:40:51;96880.66;;;10.39;100.00
54876;BME280;40764;48.472;8.166;2022-11-15T23:46:52;96880.09;;;10.63;100.00
54876;BME280;40764;48.472;8.166;2022-11-15T23:52:53;96877.84;;;10.65;100.00
54876;BME280;40764;48.472;8.166;2022-11-15T23:58:53;96868.56;;;10.57;100.00
